Time;durP1;ratioP1;P1;durP2;ratioP2;P2;SDS_P1;SDS_P2;PMS_P1;PMS_P2;Temp;Humidity;BMP_temperature;BMP_pressure;BME280_temperature;BME280_humidity;BME280_pressure;Samples;Min_cycle;Max_cycle;Signal;HPM_P1;HPM_P2
2021/04/05 00:02:24;;;;;;;33.45;13.40;;;5.90;91.90;;;;;;5074910;28;20093;-71
2021/04/05 00:04:49;;;;;;;32.67;12.60;;;5.90;91.90;;;;;;5074787;28;20447;-71
2021/04/05 00:07:16;;;;;;;23.75;13.38;;;6.00;91.80;;;;;;5074860;28;20045;-71
2021/04/05 00:09:42;;;;;;;30.55;13.80;;;6.10;91.80;;;;;;5057598;28;20037;-71
2021/04/05 00:12:09;;;;;;;25.27;12.15;;;6.10;91.90;;;;;;5074799;28;20113;-71
2021/04/05 00:14:36;;;;;;;30.20;14.90;;;6.10;91.90;;;;;;5074349;28;20093;-71
2021/04/05 00:17:05;;;;;;;40.67;13.65;;;6.20;91.70;;;;;;5057130;28;20040;-71
2021/04/05 00:19:33;;;;;;;28.23;13.82;;;6.20;91.80;;;;;;5075388;28;20468;-71
2021/04/05 00:21:58;;;;;;;33.25;13.38;;;6.20;91.90;;;;;;5074606;28;20036;-71
2021/04/05 00:24:24;;;;;;;32.80;13.60;;;6.20;92.00;;;;;;5056267;28;20480;-71
2021/04/05 00:26:50;;;;;;;33.75;14.90;;;6.30;91.80;;;;;;5074657;28;20040;-71
2021/04/05 00:29:15;;;;;;;40.72;13.75;;;6.30;92.00;;;;;;5074351;28;20040;-71
2021/04/05 00:31:41;;;;;;;32.78;14.18;;;6.30;92.00;;;;;;5074233;28;20770;-72
2021/04/05 00:34:07;;;;;;;36.28;14.73;;;6.40;92.00;;;;;;5074127;28;20036;-72
2021/04/05 00:36:32;;;;;;;38.92;15.15;;;6.40;92.00;;;;;;5073817;28;20043;-71
2021/04/05 00:38:58;;;;;;;33.42;17.05;;;6.40;92.20;;;;;;5074277;28;20485;-71
2021/04/05 00:41:25;;;;;;;42.00;16.15;;;6.50;92.30;;;;;;5074240;28;20504;-71
2021/04/05 00:43:52;;;;;;;35.15;15.32;;;6.60;92.30;;;;;;5074191;28;20068;-71
2021/04/05 00:46:23;;;;;;;46.85;16.13;;;6.70;92.20;;;;;;5073697;28;20037;-71
2021/04/05 00:48:49;;;;;;;38.30;15.95;;;6.80;92.00;;;;;;5074072;28;20052;-71
2021/04/05 00:51:18;;;;;;;33.08;13.55;;;6.80;92.00;;;;;;5073955;28;20060;-71
2021/04/05 00:53:46;;;;;;;38.40;14.90;;;6.90;91.90;;;;;;5074006;28;20063;-71
2021/04/05 00:56:15;;;;;;;34.80;14.43;;;6.90;91.90;;;;;;5073504;28;20036;-71
2021/04/05 00:58:41;;;;;;;34.83;15.88;;;7.00;91.90;;;;;;5073310;28;20037;-71
2021/04/05 01:01:09;;;;;;;39.10;14.15;;;7.00;92.30;;;;;;5073955;28;20477;-71
2021/04/05 01:03:39;;;;;;;35.92;14.27;;;7.00;92.10;;;;;;5073933;28;20041;-71
2021/04/05 01:06:14;;;;;;;39.65;15.95;;;7.10;92.10;;;;;;5073590;28;20075;-71
2021/04/05 01:08:40;;;;;;;37.53;14.68;;;7.10;91.90;;;;;;5073925;28;20063;-71
2021/04/05 01:11:08;;;;;;;28.58;13.77;;;7.20;92.00;;;;;;5073625;28;20527;-71
2021/04/05 01:13:34;;;;;;;30.35;13.15;;;7.20;92.00;;;;;;5073799;28;20041;-71
2021/04/05 01:16:00;;;;;;;36.05;14.05;;;7.20;92.00;;;;;;5073210;28;20090;-71
2021/04/05 01:18:28;;;;;;;41.15;15.55;;;7.40;91.90;;;;;;5055550;28;20476;-71
2021/04/05 01:20:54;;;;;;;34.20;14.07;;;7.40;91.70;;;;;;5074088;28;20037;-71
2021/04/05 01:23:21;;;;;;;40.40;15.27;;;7.40;91.60;;;;;;5073811;28;20408;-71
2021/04/05 01:25:48;;;;;;;37.67;14.38;;;7.50;91.60;;;;;;5072917;28;20047;-71
2021/04/05 01:28:14;;;;;;;33.63;14.07;;;7.50;91.50;;;;;;5073288;28;20156;-71
2021/04/05 01:30:46;;;;;;;36.90;14.38;;;7.60;91.40;;;;;;5073592;28;20044;-71
2021/04/05 01:33:39;;;;;;;36.38;14.48;;;7.60;91.20;;;;;;5073757;28;20037;-71
2021/04/05 01:36:11;;;;;;;32.90;13.57;;;7.60;90.90;;;;;;5054922;28;20115;-71
2021/04/05 01:38:42;;;;;;;36.60;14.25;;;7.70;91.00;;;;;;5073741;28;20094;-71
2021/04/05 01:41:13;;;;;;;32.75;13.02;;;7.70;91.00;;;;;;5073221;28;20443;-71
2021/04/05 01:43:39;;;;;;;27.90;13.43;;;7.70;90.90;;;;;;5073740;28;20051;-71
2021/04/05 01:46:07;;;;;;;45.88;16.40;;;7.70;90.80;;;;;;5073292;28;20381;-71
2021/04/05 01:48:33;;;;;;;37.75;14.32;;;7.80;90.60;;;;;;5073129;28;20076;-71
2021/04/05 01:50:59;;;;;;;35.15;12.02;;;7.80;90.40;;;;;;5073598;28;20044;-71
2021/04/05 01:53:26;;;;;;;30.48;12.65;;;7.90;90.20;;;;;;5073298;28;20110;-71
2021/04/05 01:55:52;;;;;;;30.33;13.35;;;7.80;90.20;;;;;;5072703;28;20131;-71
2021/04/05 01:58:20;;;;;;;25.08;12.00;;;7.80;90.10;;;;;;5073266;28;20497;-71
2021/04/05 02:00:47;;;;;;;31.52;12.68;;;7.80;90.00;;;;;;5073095;28;20055;-71
2021/04/05 02:03:14;;;;;;;27.98;11.80;;;7.90;89.80;;;;;;5055088;28;20584;-71
2021/04/05 02:05:49;;;;;;;25.05;10.68;;;7.90;89.40;;;;;;5072668;28;20111;-71
2021/04/05 02:08:25;;;;;;;33.30;11.57;;;7.90;88.90;;;;;;5073508;28;20071;-71
2021/04/05 02:10:53;;;;;;;30.45;10.77;;;7.90;88.80;;;;;;5074272;28;20083;-71
2021/04/05 02:13:20;;;;;;;24.13;10.93;;;7.90;88.40;;;;;;5077359;28;20072;-71
2021/04/05 02:15:47;;;;;;;22.40;10.15;;;8.00;87.70;;;;;;5076426;28;20443;-71
2021/04/05 02:18:14;;;;;;;22.17;10.30;;;8.00;87.80;;;;;;5076768;28;20032;-71
2021/04/05 02:20:44;;;;;;;27.40;9.68;;;8.00;87.50;;;;;;5077219;28;20423;-71
2021/04/05 02:23:10;;;;;;;22.98;9.63;;;8.00;86.70;;;;;;5076833;28;20040;-71
2021/04/05 02:25:36;;;;;;;24.23;9.70;;;8.00;87.10;;;;;;5076312;28;20036;-71
2021/04/05 02:28:04;;;;;;;26.05;10.65;;;8.00;87.40;;;;;;5076691;28;20119;-72
2021/04/05 02:30:31;;;;;;;29.85;10.20;;;8.00;87.20;;;;;;5076694;28;20032;-71
2021/04/05 02:32:58;;;;;;;25.05;9.68;;;8.00;86.70;;;;;;5076476;28;20396;-71
2021/04/05 02:35:25;;;;;;;25.83;9.30;;;8.00;87.10;;;;;;5076200;28;20040;-71
2021/04/05 02:37:53;;;;;;;28.75;10.48;;;8.00;86.60;;;;;;5076723;28;20067;-71
2021/04/05 02:40:19;;;;;;;21.08;8.20;;;8.00;87.90;;;;;;5076425;28;20454;-71
2021/04/05 02:42:46;;;;;;;26.70;9.95;;;7.90;89.40;;;;;;5076343;28;20059;-72
2021/04/05 02:45:15;;;;;;;23.48;8.82;;;7.80;90.20;;;;;;5076108;28;20533;-71
2021/04/05 02:47:41;;;;;;;28.63;9.68;;;7.80;90.60;;;;;;5076256;28;20036;-71
2021/04/05 02:50:09;;;;;;;26.73;10.30;;;7.70;91.10;;;;;;5076212;28;20036;-71
2021/04/05 02:52:39;;;;;;;27.17;10.15;;;7.60;91.00;;;;;;5076333;28;20384;-71
2021/04/05 02:55:07;;;;;;;26.73;10.65;;;7.60;91.60;;;;;;5075745;28;20041;-71
2021/04/05 02:57:37;;;;;;;31.70;10.35;;;7.60;91.30;;;;;;5076061;28;20045;-71
2021/04/05 03:00:10;;;;;;;26.60;9.05;;;7.50;91.70;;;;;;5076381;28;20036;-71
2021/04/05 03:02:41;;;;;;;31.20;10.15;;;7.50;91.50;;;;;;5076055;28;20044;-71
2021/04/05 03:05:07;;;;;;;37.55;9.90;;;7.50;91.60;;;;;;5076017;28;20044;-71
2021/04/05 03:07:34;;;;;;;30.27;11.07;;;7.50;91.60;;;;;;5075913;28;20029;-71
2021/04/05 03:10:01;;;;;;;31.55;10.80;;;7.40;91.80;;;;;;5076270;28;20040;-71
2021/04/05 03:12:28;;;;;;;33.22;10.75;;;7.40;91.80;;;;;;5075989;28;20491;-71
2021/04/05 03:14:55;;;;;;;31.70;9.65;;;7.40;91.70;;;;;;5057593;28;20106;-71
2021/04/05 03:17:22;;;;;;;27.67;10.35;;;7.40;91.80;;;;;;5075679;28;20041;-71
2021/04/05 03:19:48;;;;;;;28.83;9.60;;;7.50;91.50;;;;;;5057994;28;20037;-71
2021/04/05 03:22:14;;;;;;;26.20;8.77;;;7.50;91.30;;;;;;5075529;28;20048;-72
2021/04/05 03:24:40;;;;;;;22.63;8.32;;;7.50;91.30;;;;;;5075510;28;20040;-71
2021/04/05 03:27:06;;;;;;;25.45;8.57;;;7.50;91.20;;;;;;5075556;28;20481;-71
2021/04/05 03:29:34;;;;;;;23.20;7.75;;;7.60;90.90;;;;;;5075567;28;20062;-71
2021/04/05 03:32:01;;;;;;;21.10;5.72;;;7.60;90.90;;;;;;5075704;28;20040;-71
2021/04/05 03:34:31;;;;;;;19.60;3.83;;;7.40;90.90;;;;;;5057390;28;20182;-72
2021/04/05 03:37:13;;;;;;;16.77;4.65;;;7.20;90.40;;;;;;5075986;28;20040;-72
2021/04/05 03:39:39;;;;;;;14.15;4.15;;;7.10;91.00;;;;;;5057933;28;20044;-71
2021/04/05 03:42:29;;;;;;;15.57;3.60;;;6.90;91.20;;;;;;5075610;28;20037;-71
2021/04/05 03:45:24;;;;;;;15.55;3.47;;;6.90;91.20;;;;;;5074972;28;20045;-71
2021/04/05 03:48:12;;;;;;;12.98;3.88;;;6.80;91.00;;;;;;5075225;28;20044;-71
2021/04/05 03:50:49;;;;;;;23.50;5.50;;;6.70;91.00;;;;;;5074949;28;20120;-71
2021/04/05 03:53:32;;;;;;;21.75;6.75;;;6.70;90.70;;;;;;5075216;28;20041;-71
2021/04/05 03:56:14;;;;;;;11.40;3.08;;;6.70;90.40;;;;;;5054942;28;20045;-72
2021/04/05 03:58:45;;;;;;;10.35;1.85;;;6.50;90.80;;;;;;5055003;28;20037;-71
2021/04/05 04:01:14;;;;;;;6.85;1.85;;;6.30;90.60;;;;;;5055244;28;20045;-71
2021/04/05 04:07:07;;;;;;;5.05;1.48;;;6.20;90.90;;;;;;5012831;28;20045;-71
2021/04/05 04:09:35;;;;;;;6.18;1.25;;;6.00;91.00;;;;;;5052904;28;20584;-71
2021/04/05 04:12:02;;;;;;;9.40;2.15;;;6.00;91.30;;;;;;5036802;28;20484;-71
2021/04/05 04:14:30;;;;;;;7.10;1.33;;;5.90;91.40;;;;;;5054231;28;20068;-71
2021/04/05 04:16:57;;;;;;;6.95;1.73;;;5.60;91.90;;;;;;5055214;28;20041;-71
2021/04/05 04:19:25;;;;;;;5.10;1.42;;;5.70;91.90;;;;;;5054686;28;20124;-71
2021/04/05 04:21:51;;;;;;;4.88;1.20;;;5.60;92.00;;;;;;5054538;28;20040;-71
2021/04/05 04:24:18;;;;;;;10.30;1.45;;;5.60;92.10;;;;;;5054904;28;20378;-72
2021/04/05 04:26:44;;;;;;;6.00;1.20;;;5.60;92.80;;;;;;5054400;28;20041;-71
2021/04/05 04:29:28;;;;;;;15.60;1.77;;;5.60;92.30;;;;;;5036839;28;20405;-71
2021/04/05 04:31:54;;;;;;;6.45;1.25;;;5.50;92.30;;;;;;5054431;28;20086;-71
2021/04/05 04:34:21;;;;;;;2.75;0.85;;;5.50;92.10;;;;;;5053521;28;20041;-72
2021/04/05 04:36:48;;;;;;;3.88;1.23;;;5.30;92.20;;;;;;5053941;28;20044;-71
2021/04/05 04:39:15;;;;;;;4.18;0.80;;;5.30;92.60;;;;;;5054221;28;20041;-71
2021/04/05 04:41:42;;;;;;;5.57;1.00;;;5.20;92.40;;;;;;5054317;28;20033;-71
2021/04/05 04:44:10;;;;;;;4.38;0.80;;;5.20;92.60;;;;;;5054127;28;20064;-71
2021/04/05 04:46:36;;;;;;;2.83;0.85;;;5.00;92.30;;;;;;5053741;28;20477;-71
2021/04/05 04:49:05;;;;;;;3.00;1.05;;;5.10;92.00;;;;;;5054004;28;20106;-71
2021/04/05 04:51:32;;;;;;;2.58;0.90;;;5.20;91.70;;;;;;5054269;28;20120;-71
2021/04/05 04:54:00;;;;;;;3.25;0.88;;;5.10;91.70;;;;;;5053796;28;20508;-71
2021/04/05 04:56:27;;;;;;;3.72;0.98;;;5.10;91.90;;;;;;5035761;28;20040;-71
2021/04/05 04:59:03;;;;;;;6.10;1.13;;;5.10;92.00;;;;;;5053999;28;20101;-71
2021/04/05 05:01:31;;;;;;;4.65;0.90;;;5.00;92.10;;;;;;5054094;28;20102;-71
2021/04/05 05:04:01;;;;;;;3.17;0.82;;;4.50;91.70;;;;;;5054265;28;20037;-71
2021/04/05 05:06:28;;;;;;;7.50;1.60;;;4.50;91.70;;;;;;5036045;28;20397;-71
2021/04/05 05:08:55;;;;;;;4.18;1.00;;;4.20;92.00;;;;;;5053745;28;20033;-71
2021/04/05 05:11:21;;;;;;;6.53;1.20;;;4.20;92.30;;;;;;5036085;28;20366;-71
2021/04/05 05:13:47;;;;;;;7.32;0.90;;;4.30;92.50;;;;;;5053952;28;20037;-71
2021/04/05 05:16:14;;;;;;;5.88;1.48;;;4.00;92.20;;;;;;5053331;28;20500;-71
2021/04/05 05:18:40;;;;;;;6.65;1.10;;;4.00;92.50;;;;;;5053479;28;20106;-71
2021/04/05 05:21:11;;;;;;;6.28;1.10;;;3.90;92.80;;;;;;5053631;28;20040;-71
2021/04/05 05:23:40;;;;;;;4.15;1.30;;;4.00;92.90;;;;;;5053408;28;20041;-71
2021/04/05 05:26:10;;;;;;;4.25;0.85;;;4.10;92.60;;;;;;5053320;28;20048;-71
2021/04/05 05:28:37;;;;;;;4.82;0.85;;;4.10;92.20;;;;;;5053556;28;20044;-71
2021/04/05 05:31:03;;;;;;;7.40;0.98;;;4.10;92.50;;;;;;5053733;28;20037;-71
2021/04/05 05:33:29;;;;;;;3.90;0.65;;;4.20;92.50;;;;;;5053334;28;20417;-71
2021/04/05 05:35:57;;;;;;;7.22;1.27;;;4.00;92.60;;;;;;5053092;28;20045;-72
2021/04/05 05:38:24;;;;;;;7.07;1.30;;;4.10;92.40;;;;;;5053407;28;20037;-71
2021/04/05 05:40:53;;;;;;;5.65;1.40;;;4.10;92.20;;;;;;5053161;28;20036;-71
2021/04/05 05:43:29;;;;;;;5.60;0.95;;;4.10;92.30;;;;;;5053254;28;20064;-71
2021/04/05 05:46:14;;;;;;;8.70;1.52;;;4.10;91.80;;;;;;5052835;28;20068;-71
2021/04/05 05:49:08;;;;;;;4.35;0.80;;;4.10;91.70;;;;;;5053220;28;20047;-71
2021/04/05 05:51:40;;;;;;;5.47;2.08;;;3.90;91.80;;;;;;5053166;28;20056;-71
2021/04/05 05:54:24;;;;;;;7.68;1.10;;;3.90;91.60;;;;;;5053141;28;20044;-71
2021/04/05 05:57:04;;;;;;;;;;;3.80;92.00;;;;;;5053654;28;20072;-71
2021/04/05 05:59:51;;;;;;;6.28;1.08;;;3.70;91.90;;;;;;5053275;28;19920;-71
2021/04/05 06:02:35;;;;;;;5.47;1.48;;;3.70;92.30;;;;;;5053081;28;20409;-71
2021/04/05 06:05:19;;;;;;;6.57;1.20;;;3.70;92.70;;;;;;5053258;28;20075;-71
2021/04/05 06:08:25;;;;;;;8.38;1.75;;;3.70;92.60;;;;;;5053497;28;20059;-71
2021/04/05 06:11:12;;;;;;;9.15;1.40;;;3.70;92.20;;;;;;5035209;28;20172;-72
2021/04/05 06:13:54;;;;;;;8.32;1.70;;;3.70;92.50;;;;;;5053265;28;20041;-71
2021/04/05 06:16:26;;;;;;;7.25;1.25;;;3.80;92.00;;;;;;5052554;28;20044;-71
2021/04/05 06:19:29;;;;;;;8.68;1.73;;;3.80;91.60;;;;;;5052640;28;20041;-71
2021/04/05 06:22:25;;;;;;;6.45;1.65;;;3.80;92.00;;;;;;5052808;28;20033;-71
2021/04/05 06:24:54;;;;;;;11.38;2.33;;;3.80;91.70;;;;;;5052837;28;20041;-71
2021/04/05 06:27:35;;;;;;;15.25;2.10;;;4.00;90.70;;;;;;5053208;28;20072;-71
2021/04/05 06:30:15;;;;;;;14.75;2.17;;;4.00;90.20;;;;;;5052638;28;20068;-72
2021/04/05 06:32:59;;;;;;;7.80;1.83;;;4.10;89.90;;;;;;5052852;28;20036;-72
2021/04/05 06:35:44;;;;;;;12.48;2.50;;;4.00;89.50;;;;;;5052500;28;20037;-71
2021/04/05 06:38:34;;;;;;;12.13;2.85;;;4.10;88.50;;;;;;5052894;28;20044;-71
2021/04/05 06:41:30;;;;;;;22.25;3.50;;;4.10;85.40;;;;;;5052785;28;20048;-71
2021/04/05 06:44:26;;;;;;;18.05;3.30;;;4.20;83.50;;;;;;5052838;28;20040;-71
2021/04/05 06:46:57;;;;;;;12.45;3.75;;;4.30;82.40;;;;;;5052438;28;20394;-72
2021/04/05 06:50:01;;;;;;;10.18;1.80;;;4.20;82.40;;;;;;5052655;28;20041;-71
2021/04/05 06:52:38;;;;;;;14.52;2.95;;;4.20;81.90;;;;;;5052909;28;20037;-71
2021/04/05 06:55:26;;;;;;;14.55;2.25;;;4.10;82.10;;;;;;5052526;28;20040;-72
2021/04/05 06:58:24;;;;;;;12.80;2.90;;;4.00;82.70;;;;;;5055299;28;20540;-72
2021/04/05 07:01:01;;;;;;;8.60;2.88;;;3.90;84.60;;;;;;5038305;28;20079;-71
2021/04/05 07:04:05;;;;;;;11.93;2.28;;;3.90;85.20;;;;;;5056219;28;20044;-72
2021/04/05 07:06:50;;;;;;;14.23;2.10;;;3.80;85.90;;;;;;5055704;28;20037;-71
2021/04/05 07:09:33;;;;;;;9.65;1.45;;;3.90;85.90;;;;;;5056555;28;20044;-71
2021/04/05 07:12:25;;;;;;;11.60;1.65;;;3.80;84.60;;;;;;5055798;28;20037;-72
2021/04/05 07:15:15;;;;;;;4.28;0.80;;;3.80;82.60;;;;;;5055726;28;20044;-71
2021/04/05 07:17:59;;;;;;;6.60;1.20;;;4.00;81.50;;;;;;5055626;28;20047;-71
2021/04/05 07:21:04;;;;;;;4.22;1.00;;;4.00;81.40;;;;;;5055794;28;20040;-72
2021/04/05 07:23:52;;;;;;;2.72;1.05;;;4.10;81.80;;;;;;5055738;28;20069;-71
2021/04/05 07:26:42;;;;;;;5.78;0.77;;;4.30;79.30;;;;;;5055469;28;20518;-71
2021/04/05 07:29:29;;;;;;;5.53;1.17;;;4.40;79.30;;;;;;5055971;28;20083;-71
2021/04/05 07:32:19;;;;;;;4.97;1.10;;;4.50;80.30;;;;;;5055749;28;20037;-71
2021/04/05 07:34:50;;;;;;;8.52;1.17;;;4.60;80.60;;;;;;5055113;28;20052;-72
2021/04/05 07:37:47;;;;;;;6.65;1.55;;;4.40;79.60;;;;;;5055567;28;20083;-72
2021/04/05 07:40:35;;;;;;;10.60;1.90;;;4.10;83.30;;;;;;5055469;28;20037;-71
2021/04/05 07:43:07;;;;;;;13.10;1.83;;;3.60;86.70;;;;;;5056041;28;20118;-72
2021/04/05 07:45:32;;;;;;;8.30;1.92;;;3.30;89.10;;;;;;5055150;28;20131;-71
2021/04/05 07:48:08;;;;;;;5.88;2.35;;;3.20;89.70;;;;;;5055299;28;20463;-72
2021/04/05 07:51:23;;;;;;;10.45;1.45;;;3.30;89.60;;;;;;5055304;28;20037;-71
2021/04/05 07:53:58;;;;;;;2.83;0.70;;;2.70;89.40;;;;;;4974379;28;20043;-69
2021/04/05 07:56:50;;;;;;;10.65;1.90;;;2.40;90.80;;;;;;4957943;28;20057;-70
2021/04/05 08:00:00;;;;;;;4.10;1.48;;;1.90;91.30;;;;;;5031432;28;20183;-70
2021/04/05 08:02:56;;;;;;;8.27;1.40;;;1.80;92.00;;;;;;5067235;28;20459;-70
2021/04/05 08:06:02;;;;;;;6.88;1.95;;;1.80;91.80;;;;;;5074749;28;20052;-70
2021/04/05 08:08:52;;;;;;;14.52;2.20;;;1.70;90.80;;;;;;5056000;28;20032;-71
2021/04/05 08:11:37;;;;;;;12.90;1.85;;;1.90;90.90;;;;;;5074969;28;20081;-70
2021/04/05 08:14:28;;;;;;;10.95;2.20;;;2.00;89.80;;;;;;5057433;28;20064;-70
2021/04/05 08:16:59;;;;;;;10.45;2.45;;;2.00;89.00;;;;;;5074863;28;20036;-70
2021/04/05 08:19:51;;;;;;;13.05;2.65;;;2.20;88.50;;;;;;5074900;28;20037;-70
2021/04/05 08:22:41;;;;;;;14.40;2.75;;;2.20;87.90;;;;;;5075123;28;20063;-70
2021/04/05 08:25:33;;;;;;;12.18;2.30;;;2.30;88.80;;;;;;5056866;28;20094;-70
2021/04/05 08:28:10;;;;;;;8.48;2.13;;;2.30;85.10;;;;;;5074420;28;20484;-71
2021/04/05 08:31:10;;;;;;;13.10;1.92;;;2.40;86.10;;;;;;5056589;28;20116;-71
2021/04/05 08:34:13;;;;;;;14.05;3.35;;;2.60;85.60;;;;;;5074736;28;20036;-70
2021/04/05 08:36:49;;;;;;;21.73;3.25;;;2.60;85.10;;;;;;5056205;28;20037;-70
2021/04/05 08:39:41;;;;;;;9.23;2.55;;;2.60;84.60;;;;;;5055854;28;20059;-70
2021/04/05 08:42:16;;;;;;;11.93;2.42;;;2.70;84.70;;;;;;5074631;28;20039;-70
2021/04/05 08:44:54;;;;;;;19.20;3.15;;;3.10;85.40;;;;;;5073897;28;20044;-70
2021/04/05 08:47:28;;;;;;;20.23;3.03;;;3.40;81.60;;;;;;5074192;28;20119;-71
2021/04/05 08:49:58;;;;;;;14.18;2.38;;;3.80;82.10;;;;;;5056177;28;20040;-70
2021/04/05 08:52:26;;;;;;;15.88;3.25;;;3.90;78.60;;;;;;5056660;28;20094;-70
2021/04/05 08:54:54;;;;;;;14.85;3.85;;;4.00;78.80;;;;;;5073835;28;20036;-70
2021/04/05 08:57:24;;;;;;;14.88;3.03;;;3.80;78.20;;;;;;5074178;28;20044;-70
2021/04/05 09:00:03;;;;;;;15.45;3.13;;;3.50;78.70;;;;;;5074059;28;20040;-71
2021/04/05 09:02:42;;;;;;;8.82;2.35;;;3.00;78.40;;;;;;5073948;28;20114;-70
2021/04/05 09:05:12;;;;;;;13.20;2.33;;;2.80;78.90;;;;;;5073705;28;20056;-70
2021/04/05 09:08:07;;;;;;;16.45;2.17;;;2.90;81.30;;;;;;5073795;28;20488;-70
2021/04/05 09:11:05;;;;;;;12.27;2.72;;;2.80;78.90;;;;;;5055838;28;20121;-70
2021/04/05 09:13:50;;;;;;;13.30;3.08;;;2.90;80.00;;;;;;5073720;28;20029;-70
2021/04/05 09:16:24;;;;;;;12.15;3.05;;;2.90;76.40;;;;;;5073054;28;20044;-70
2021/04/05 09:19:17;;;;;;;8.60;1.92;;;3.10;74.70;;;;;;5073371;28;20047;-70
2021/04/05 09:22:05;;;;;;;7.70;2.03;;;3.20;73.20;;;;;;5073897;28;20036;-70
2021/04/05 09:24:43;;;;;;;9.68;1.60;;;3.30;73.00;;;;;;5073261;28;20119;-73
2021/04/05 09:27:20;;;;;;;11.50;2.53;;;3.50;71.10;;;;;;5073440;28;20051;-72
2021/04/05 09:30:05;;;;;;;8.77;1.67;;;3.80;70.90;;;;;;5073946;28;20121;-70
2021/04/05 09:32:49;;;;;;;9.25;2.53;;;4.10;70.00;;;;;;5074088;28;20421;-70
2021/04/05 09:35:21;;;;;;;10.60;1.83;;;4.20;67.80;;;;;;5054852;28;20044;-70
2021/04/05 09:38:04;;;;;;;3.65;1.55;;;4.20;66.60;;;;;;5073339;28;20090;-70
2021/04/05 09:40:50;;;;;;;14.00;2.00;;;4.00;62.00;;;;;;5071880;28;20045;-72
2021/04/05 09:43:27;;;;;;;6.43;1.20;;;4.30;61.90;;;;;;5071544;28;20090;-70
2021/04/05 09:46:27;;;;;;;9.50;1.88;;;4.50;62.60;;;;;;5055258;28;20090;-71
2021/04/05 09:49:12;;;;;;;5.80;1.00;;;4.60;58.00;;;;;;5073064;28;20045;-71
2021/04/05 09:51:59;;;;;;;3.83;1.08;;;4.80;58.80;;;;;;5073502;28;20045;-70
2021/04/05 09:54:48;;;;;;;5.32;1.00;;;4.70;56.70;;;;;;5072917;28;20064;-71
2021/04/05 09:57:46;;;;;;;4.82;0.95;;;4.80;55.10;;;;;;5073319;28;20078;-71
2021/04/05 10:00:16;;;;;;;2.60;1.05;;;4.90;56.50;;;;;;5073026;28;20040;-71
2021/04/05 10:02:48;;;;;;;4.53;1.15;;;5.20;57.90;;;;;;5073034;28;20064;-71
2021/04/05 10:05:14;;;;;;;11.95;1.90;;;5.30;58.60;;;;;;5072953;28;20085;-71
2021/04/05 10:07:45;;;;;;;5.35;2.03;;;5.30;58.20;;;;;;5055068;28;20443;-71
2021/04/05 10:10:13;;;;;;;9.93;2.45;;;5.10;58.40;;;;;;5072862;28;20035;-71
2021/04/05 10:12:40;;;;;;;6.15;1.00;;;5.00;58.10;;;;;;5072936;28;20435;-70
2021/04/05 10:15:10;;;;;;;10.15;2.05;;;5.20;58.70;;;;;;5072455;28;20107;-73
2021/04/05 10:17:37;;;;;;;4.97;1.23;;;5.20;56.70;;;;;;5072824;28;20119;-71
2021/04/05 10:20:06;;;;;;;6.00;1.33;;;5.20;56.20;;;;;;5072828;28;20050;-70
2021/04/05 10:22:46;;;;;;;7.50;1.45;;;5.00;55.60;;;;;;5072823;28;20037;-70
2021/04/05 10:25:15;;;;;;;8.15;1.30;;;4.70;56.90;;;;;;5073089;28;20037;-71
2021/04/05 10:27:42;;;;;;;12.70;2.25;;;4.50;59.60;;;;;;5072716;28;20088;-71
2021/04/05 10:30:15;;;;;;;5.78;1.23;;;4.50;59.50;;;;;;5072870;28;20485;-72
2021/04/05 10:32:42;;;;;;;4.50;1.00;;;4.50;60.40;;;;;;5075531;28;20040;-72
2021/04/05 10:35:11;;;;;;;5.07;1.38;;;4.50;56.70;;;;;;5076201;28;20032;-70
2021/04/05 10:37:43;;;;;;;5.15;1.27;;;4.70;55.50;;;;;;5076515;28;20090;-71
2021/04/05 10:40:15;;;;;;;6.95;1.10;;;4.90;56.10;;;;;;5076488;28;20449;-70
2021/04/05 10:42:48;;;;;;;6.43;1.58;;;5.10;55.40;;;;;;5076446;28;20044;-70
2021/04/05 10:45:29;;;;;;;10.32;1.33;;;4.90;56.50;;;;;;5076091;28;20089;-70
2021/04/05 10:48:06;;;;;;;3.28;0.82;;;4.70;57.60;;;;;;5076659;28;20059;-70
2021/04/05 10:50:43;;;;;;;5.68;1.20;;;4.10;61.00;;;;;;5076657;28;20045;-70
2021/04/05 10:53:13;;;;;;;6.97;0.95;;;3.90;64.20;;;;;;5076245;28;20198;-70
2021/04/05 10:55:50;;;;;;;3.25;0.90;;;3.80;65.50;;;;;;5075880;28;20472;-70
2021/04/05 10:58:22;;;;;;;6.45;0.65;;;4.20;66.70;;;;;;5058578;28;20103;-70
2021/04/05 11:00:53;;;;;;;6.55;1.15;;;4.30;66.80;;;;;;5076009;28;20052;-70
2021/04/05 11:03:28;;;;;;;4.40;1.00;;;4.40;65.50;;;;;;5076359;28;20040;-70
2021/04/05 11:06:00;;;;;;;3.22;1.08;;;4.20;67.00;;;;;;5076038;28;20492;-70
2021/04/05 11:08:33;;;;;;;2.58;0.50;;;4.10;69.90;;;;;;5076098;28;20047;-70
2021/04/05 11:11:12;;;;;;;4.43;0.70;;;3.40;70.70;;;;;;5076168;28;20404;-70
2021/04/05 11:13:41;;;;;;;3.22;0.90;;;3.20;73.20;;;;;;5076407;28;20090;-70
2021/04/05 11:16:12;;;;;;;5.65;1.13;;;3.00;74.20;;;;;;5075815;28;20094;-70
2021/04/05 11:19:08;;;;;;;6.63;1.10;;;3.00;76.10;;;;;;5076041;28;20040;-70
2021/04/05 11:21:43;;;;;;;7.93;1.33;;;2.90;76.50;;;;;;5059066;28;20094;-70
2021/04/05 11:24:13;;;;;;;7.80;1.50;;;3.10;75.30;;;;;;5076087;28;20077;-70
2021/04/05 11:26:41;;;;;;;6.43;1.20;;;3.30;73.90;;;;;;5075698;28;20051;-70
2021/04/05 11:29:13;;;;;;;6.15;0.98;;;3.50;72.40;;;;;;5075910;28;20041;-69
2021/04/05 11:31:43;;;;;;;9.60;1.55;;;3.80;71.30;;;;;;5075994;28;20036;-70
2021/04/05 11:34:10;;;;;;;16.35;2.00;;;4.00;69.20;;;;;;5075532;28;20496;-70
2021/04/05 11:36:45;;;;;;;6.10;2.15;;;4.20;70.10;;;;;;5057408;28;20429;-70
2021/04/05 11:39:17;;;;;;;8.25;1.98;;;4.40;68.80;;;;;;5075370;28;20038;-70
2021/04/05 11:41:51;;;;;;;6.50;1.80;;;4.50;68.00;;;;;;5075325;28;20060;-70
2021/04/05 11:44:21;;;;;;;6.07;1.50;;;4.50;68.60;;;;;;5075265;28;20068;-71
2021/04/05 11:46:49;;;;;;;11.80;2.15;;;4.60;66.50;;;;;;5075003;28;20041;-70
2021/04/05 11:49:15;;;;;;;7.68;1.23;;;4.60;64.30;;;;;;5075195;28;20037;-70
2021/04/05 11:52:12;;;;;;;12.13;1.92;;;4.60;62.40;;;;;;5075110;28;20381;-71
2021/04/05 11:54:52;;;;;;;10.65;2.22;;;4.70;61.30;;;;;;5064081;28;20404;-70
2021/04/05 11:57:42;;;;;;;6.25;1.90;;;4.90;60.80;;;;;;5075482;28;20094;-70
2021/04/05 12:00:11;;;;;;;12.45;1.50;;;5.10;61.50;;;;;;5075061;28;20037;-70
2021/04/05 12:02:50;;;;;;;6.22;1.73;;;5.00;61.10;;;;;;5074912;28;20037;-70
2021/04/05 12:05:25;;;;;;;8.30;1.63;;;4.70;64.00;;;;;;5074694;28;20044;-71
2021/04/05 12:08:05;;;;;;;7.07;1.52;;;4.20;68.80;;;;;;5057276;28;20040;-70
2021/04/05 12:10:33;;;;;;;5.43;0.80;;;3.80;69.40;;;;;;5075075;28;20489;-70
2021/04/05 12:13:11;;;;;;;6.72;0.85;;;3.70;70.00;;;;;;5074946;28;20040;-70
2021/04/05 12:15:39;;;;;;;5.90;0.70;;;3.70;67.10;;;;;;5074748;28;20043;-70
2021/04/05 12:18:06;;;;;;;7.68;1.73;;;3.70;65.50;;;;;;5074558;28;20040;-70
2021/04/05 12:20:33;;;;;;;8.10;0.82;;;3.70;64.60;;;;;;5074586;28;20040;-70
2021/04/05 12:23:01;;;;;;;3.25;0.80;;;3.60;66.10;;;;;;5074866;28;20529;-70
2021/04/05 12:25:39;;;;;;;4.03;1.30;;;3.50;62.70;;;;;;5074150;28;20037;-70
2021/04/05 12:28:07;;;;;;;2.85;0.70;;;3.40;64.90;;;;;;5074222;28;20399;-71
2021/04/05 12:30:34;;;;;;;1.95;0.40;;;3.10;67.00;;;;;;5074291;28;20468;-70
2021/04/05 12:33:02;;;;;;;4.35;0.65;;;3.10;70.10;;;;;;5074240;28;20400;-70
2021/04/05 12:35:29;;;;;;;4.35;0.90;;;3.30;68.20;;;;;;5073838;28;20036;-70
2021/04/05 12:38:04;;;;;;;4.55;1.27;;;3.30;67.40;;;;;;5074121;28;20115;-70
2021/04/05 12:40:35;;;;;;;6.13;1.35;;;3.60;65.60;;;;;;5074135;28;20048;-70
2021/04/05 12:43:06;;;;;;;11.30;1.30;;;3.70;67.00;;;;;;5074222;28;20087;-71
2021/04/05 12:45:34;;;;;;;10.60;2.50;;;3.70;69.80;;;;;;5073784;28;20044;-70
2021/04/05 12:48:02;;;;;;;6.07;1.20;;;3.60;70.60;;;;;;5074327;28;20048;-70
2021/04/05 12:50:34;;;;;;;5.45;1.50;;;3.60;71.90;;;;;;5074150;28;20032;-70
2021/04/05 12:53:05;;;;;;;8.45;1.67;;;3.50;71.70;;;;;;5074040;28;20040;-70
2021/04/05 12:55:39;;;;;;;6.47;1.00;;;3.60;74.20;;;;;;5073267;28;20036;-71
2021/04/05 12:58:05;;;;;;;10.73;1.55;;;3.70;74.10;;;;;;5074159;28;20049;-70
2021/04/05 13:00:31;;;;;;;4.88;1.60;;;3.70;73.20;;;;;;5073970;28;20381;-71
2021/04/05 13:03:19;;;;;;;3.33;0.85;;;3.70;72.10;;;;;;5056032;28;20055;-70
2021/04/05 13:05:54;;;;;;;4.47;0.93;;;3.70;71.40;;;;;;5073283;28;20044;-71
2021/04/05 13:08:48;;;;;;;9.20;0.85;;;3.40;73.60;;;;;;5073914;28;20384;-70
2021/04/05 13:11:36;;;;;;;10.05;0.70;;;3.30;72.20;;;;;;5073633;28;20040;-70
2021/04/05 13:14:15;;;;;;;5.43;1.25;;;2.80;73.30;;;;;;5056340;28;20115;-71
2021/04/05 13:16:55;;;;;;;3.03;0.45;;;2.60;75.10;;;;;;5073772;28;20050;-70
2021/04/05 13:19:28;;;;;;;2.35;0.40;;;2.60;77.40;;;;;;5073823;28;20405;-71
2021/04/05 13:21:55;;;;;;;8.02;0.75;;;2.60;76.80;;;;;;5073930;28;20041;-70
2021/04/05 13:24:27;;;;;;;4.28;0.82;;;2.70;77.80;;;;;;5073327;28;20055;-70
2021/04/05 13:26:57;;;;;;;7.07;0.73;;;2.70;77.30;;;;;;5073273;28;20181;-70
2021/04/05 13:29:29;;;;;;;6.63;1.27;;;2.60;77.90;;;;;;5073453;28;20041;-70
2021/04/05 13:31:57;;;;;;;3.67;0.98;;;2.50;81.20;;;;;;5073341;28;20040;-70
2021/04/05 13:34:29;;;;;;;10.55;1.65;;;2.50;83.40;;;;;;5072992;28;20485;-71